createdAt,value
2023-04-01T00:01:07.302Z,98992.23
2023-04-01T00:16:00.005Z,98985.92
2023-04-01T00:30:49.129Z,98980.45
2023-04-01T01:30:35.839Z,98961.80
2023-04-01T01:45:31.176Z,98960.19
2023-04-01T02:00:21.349Z,98950.17
2023-04-01T02:15:11.724Z,98940.41
2023-04-01T02:44:54.189Z,98939.63
2023-04-01T04:28:51.126Z,98931.58
2023-04-01T04:43:41.757Z,98926.40
2023-04-01T04:58:32.373Z,98905.02
2023-04-01T05:13:23.316Z,98893.59
2023-04-01T05:28:14.040Z,98903.89
2023-04-01T05:43:04.796Z,98911.94
2023-04-01T05:57:54.455Z,98897.00
2023-04-01T06:13:12.162Z,98904.64
2023-04-01T06:28:25.282Z,98920.20
2023-04-01T06:43:20.796Z,98923.14
2023-04-01T06:58:14.572Z,98925.99
2023-04-01T07:13:08.012Z,98934.34
2023-04-01T07:27:58.496Z,98940.29
2023-04-01T07:42:48.979Z,98951.66
2023-04-01T07:57:58.230Z,98938.42
2023-04-01T08:13:11.832Z,98946.37
2023-04-01T08:28:07.735Z,98968.23
2023-04-01T08:43:07.762Z,98967.47
2023-04-01T08:58:16.660Z,98972.57
2023-04-01T09:13:30.108Z,98984.30
2023-04-01T09:28:30.646Z,98990.62
2023-04-01T09:43:33.167Z,98997.91
2023-04-01T09:58:30.196Z,99001.36
2023-04-01T10:13:43.402Z,99006.62
2023-04-01T10:28:43.269Z,99017.55
2023-04-01T10:44:02.819Z,99025.93
2023-04-01T10:59:14.678Z,99039.81
2023-04-01T11:14:43.414Z,99042.23
2023-04-01T11:59:48.076Z,99083.98
2023-04-01T12:15:09.474Z,99093.61
2023-04-01T12:30:32.401Z,99100.80
2023-04-01T13:00:44.519Z,99114.36
2023-04-01T13:30:40.014Z,99131.50
2023-04-01T13:45:53.277Z,99147.52
2023-04-01T14:00:59.219Z,99150.45
2023-04-01T14:16:08.114Z,99152.99
2023-04-01T14:31:24.458Z,99150.17
2023-04-01T14:46:29.382Z,99163.03
2023-04-01T15:01:45.387Z,99166.77
2023-04-01T15:16:54.264Z,99172.63
2023-04-01T15:31:56.446Z,99176.99
2023-04-01T15:46:50.449Z,99184.78
2023-04-01T16:01:56.179Z,99203.46
2023-04-01T16:17:13.648Z,99193.06
2023-04-01T16:32:30.172Z,99193.03
2023-04-01T16:47:31.614Z,99223.23
2023-04-01T17:17:43.526Z,99253.37
2023-04-01T17:32:59.503Z,99283.59
2023-04-01T17:48:03.438Z,99290.08
2023-04-01T18:03:14.989Z,99301.22
2023-04-01T18:18:11.393Z,99319.64
2023-04-01T18:33:05.509Z,99327.20
2023-04-01T18:48:02.748Z,99330.36
2023-04-01T19:02:58.205Z,99363.16
2023-04-01T19:18:14.982Z,99387.53
2023-04-01T19:33:23.744Z,99403.73
2023-04-01T19:48:32.066Z,99421.70
2023-04-01T20:03:26.182Z,99427.66
2023-04-01T20:18:37.697Z,99451.56
2023-04-01T20:33:53.277Z,99456.51
2023-04-01T20:49:08.623Z,99463.94
2023-04-01T21:04:21.586Z,99480.27
2023-04-01T21:34:58.575Z,99498.58
2023-04-01T22:05:11.095Z,99526.40
2023-04-01T22:20:08.341Z,99530.66
2023-04-01T22:35:04.960Z,99543.95
2023-04-01T22:50:00.603Z,99549.39
2023-04-01T23:04:53.960Z,99563.52
2023-04-01T23:20:04.255Z,99565.94
2023-04-01T23:34:58.732Z,99594.28
2023-04-01T23:49:56.333Z,99606.59
